createdAt,value
2022-10-18T00:00:52.992Z,7.28
2022-10-18T00:03:59.545Z,6.91
2022-10-18T00:07:05.816Z,6.91
2022-10-18T00:10:11.767Z,7.25
2022-10-18T00:13:18.607Z,7.35
2022-10-18T00:16:21.291Z,7.35
2022-10-18T00:19:28.590Z,7.22
2022-10-18T00:22:34.721Z,7.20
2022-10-18T00:25:40.508Z,7.15
2022-10-18T00:28:47.223Z,7.14
2022-10-18T00:31:53.676Z,7.24
2022-10-18T00:35:00.042Z,7.14
2022-10-18T00:38:05.344Z,7.00
2022-10-18T00:41:11.337Z,6.93
2022-10-18T00:44:23.790Z,6.89
2022-10-18T00:47:30.318Z,6.84
2022-10-18T00:50:36.816Z,6.83
2022-10-18T00:53:41.686Z,6.98
2022-10-18T00:56:46.811Z,6.64
2022-10-18T00:59:53.157Z,6.42
2022-10-18T01:03:00.198Z,6.56
2022-10-18T01:06:05.309Z,6.60
2022-10-18T01:09:22.561Z,6.67
2022-10-18T01:12:55.100Z,6.73
2022-10-18T01:16:14.303Z,6.73
2022-10-18T01:19:26.681Z,6.80
2022-10-18T01:22:52.645Z,6.86
2022-10-18T01:26:37.831Z,6.84
2022-10-18T01:30:05.829Z,6.74
2022-10-18T01:33:23.699Z,6.82
2022-10-18T01:36:41.636Z,6.75
2022-10-18T01:39:49.440Z,6.74
2022-10-18T01:42:55.214Z,6.76
2022-10-18T01:45:54.768Z,6.70
2022-10-18T01:49:00.440Z,6.58
2022-10-18T01:52:05.894Z,6.76
2022-10-18T01:55:13.020Z,6.62
2022-10-18T01:58:38.557Z,6.50
2022-10-18T02:02:06.569Z,6.65
2022-10-18T02:05:25.490Z,6.68
2022-10-18T02:08:51.505Z,6.51
2022-10-18T02:11:58.123Z,6.50
2022-10-18T02:15:05.079Z,6.59
2022-10-18T02:18:10.646Z,6.14
2022-10-18T02:21:17.422Z,6.62
2022-10-18T02:24:24.451Z,6.69
2022-10-18T02:27:29.956Z,6.78
2022-10-18T02:30:38.624Z,6.72
2022-10-18T02:33:49.015Z,6.59
2022-10-18T02:37:14.824Z,6.39
2022-10-18T02:40:22.217Z,6.46
2022-10-18T02:43:27.900Z,6.24
2022-10-18T02:46:34.882Z,6.26
2022-10-18T02:49:40.909Z,6.22
2022-10-18T02:52:46.291Z,6.10
2022-10-18T02:55:52.255Z,5.90
2022-10-18T02:58:57.489Z,5.79
2022-10-18T03:02:02.126Z,6.12
2022-10-18T03:05:08.924Z,5.73
2022-10-18T03:08:15.060Z,5.98
2022-10-18T03:11:21.106Z,5.91
2022-10-18T03:14:26.657Z,5.88
2022-10-18T03:17:31.571Z,5.84
2022-10-18T03:20:37.174Z,5.79
2022-10-18T03:23:43.635Z,5.72
2022-10-18T03:26:50.398Z,5.67
2022-10-18T03:29:57.314Z,5.67
2022-10-18T03:33:03.816Z,5.79
2022-10-18T03:36:09.220Z,5.55
2022-10-18T03:39:14.953Z,5.57
2022-10-18T03:42:20.957Z,5.54
2022-10-18T03:45:29.020Z,5.56
2022-10-18T03:48:35.673Z,5.59
2022-10-18T03:51:42.186Z,5.30
2022-10-18T03:54:48.156Z,5.58
2022-10-18T03:57:54.000Z,5.07
2022-10-18T04:01:00.047Z,5.36
2022-10-18T04:04:06.055Z,5.03
2022-10-18T04:07:12.506Z,5.34
2022-10-18T04:10:19.122Z,4.89
2022-10-18T04:13:24.624Z,5.24
2022-10-18T04:16:31.297Z,5.61
2022-10-18T04:19:37.232Z,5.69
2022-10-18T04:22:42.919Z,5.42
2022-10-18T04:25:48.585Z,5.43
2022-10-18T04:28:54.017Z,5.48
2022-10-18T04:31:59.575Z,5.53
2022-10-18T04:35:05.509Z,5.53
2022-10-18T04:38:11.981Z,5.48
2022-10-18T04:41:17.994Z,5.17
2022-10-18T04:44:24.151Z,5.24
2022-10-18T04:47:29.797Z,5.21
2022-10-18T04:50:36.253Z,5.31
2022-10-18T04:53:44.511Z,5.75
2022-10-18T04:56:51.081Z,5.87
2022-10-18T04:59:56.280Z,6.01
2022-10-18T05:03:02.189Z,6.27
2022-10-18T05:06:07.710Z,5.95
2022-10-18T05:09:14.407Z,6.57
2022-10-18T05:12:20.043Z,6.65
2022-10-18T05:15:26.617Z,6.75
2022-10-18T05:18:33.153Z,6.78
2022-10-18T05:21:39.400Z,7.00
2022-10-18T05:24:44.810Z,7.26
2022-10-18T05:27:50.624Z,7.36
2022-10-18T05:30:57.033Z,7.40
2022-10-18T05:34:02.602Z,7.55
2022-10-18T05:37:08.924Z,7.59
2022-10-18T05:40:15.552Z,7.73
2022-10-18T05:43:21.554Z,7.80
2022-10-18T05:46:28.057Z,8.00
2022-10-18T05:49:32.996Z,8.14
2022-10-18T05:52:38.198Z,7.83
2022-10-18T05:55:44.285Z,8.17
2022-10-18T05:58:50.210Z,8.25
2022-10-18T06:01:57.212Z,8.45
2022-10-18T06:05:02.727Z,8.53
2022-10-18T06:08:10.801Z,8.79
2022-10-18T06:11:22.099Z,8.98
2022-10-18T06:14:21.247Z,9.41
2022-10-18T06:17:30.299Z,9.55
2022-10-18T06:20:36.439Z,9.77
2022-10-18T06:23:46.161Z,9.96
2022-10-18T06:26:51.831Z,10.07
2022-10-18T06:29:58.863Z,10.20
2022-10-18T06:33:05.247Z,10.37
2022-10-18T06:36:17.228Z,10.70
2022-10-18T06:39:40.979Z,10.85
2022-10-18T06:42:55.280Z,10.91
2022-10-18T06:45:57.404Z,11.15
2022-10-18T06:49:02.598Z,11.33
2022-10-18T06:52:09.885Z,11.58
2022-10-18T06:55:17.231Z,11.81
2022-10-18T06:58:23.049Z,11.88
2022-10-18T07:01:30.454Z,12.12
2022-10-18T07:04:37.275Z,12.14
2022-10-18T07:07:50.628Z,12.50
2022-10-18T07:10:56.316Z,12.53
2022-10-18T07:14:01.954Z,12.69
2022-10-18T07:17:08.562Z,12.74
2022-10-18T07:20:18.299Z,12.97
2022-10-18T07:23:24.941Z,13.10
2022-10-18T07:26:44.506Z,13.44
2022-10-18T07:29:49.681Z,13.62
2022-10-18T07:32:55.506Z,13.86
2022-10-18T07:36:04.532Z,14.06
2022-10-18T07:39:13.879Z,14.18
2022-10-18T07:42:19.243Z,14.26
2022-10-18T07:45:25.645Z,14.24
2022-10-18T07:48:31.978Z,14.41
2022-10-18T07:51:40.268Z,14.64
2022-10-18T07:54:46.479Z,14.84
2022-10-18T07:57:51.796Z,15.07
2022-10-18T08:00:58.674Z,15.45
2022-10-18T08:04:09.795Z,15.39
2022-10-18T08:07:17.227Z,15.17
2022-10-18T08:10:24.197Z,14.84
2022-10-18T08:13:29.534Z,15.07
2022-10-18T08:16:39.419Z,15.51
2022-10-18T08:19:52.900Z,15.74
2022-10-18T08:22:51.515Z,15.88
2022-10-18T08:25:57.132Z,16.09
2022-10-18T08:29:21.126Z,15.83
2022-10-18T08:32:12.843Z,15.76
2022-10-18T08:35:17.837Z,16.00
2022-10-18T08:38:24.947Z,16.09
2022-10-18T08:41:35.318Z,16.19
2022-10-18T08:44:46.882Z,16.18
2022-10-18T08:48:00.730Z,16.43
2022-10-18T08:51:06.799Z,17.00
2022-10-18T08:54:28.252Z,16.94
2022-10-18T08:57:35.097Z,16.69
2022-10-18T09:00:45.098Z,16.71
2022-10-18T09:04:22.627Z,16.71
2022-10-18T09:08:05.866Z,16.75
2022-10-18T09:11:38.850Z,16.68
2022-10-18T09:15:10.293Z,16.60
2022-10-18T09:18:57.445Z,16.54
2022-10-18T09:22:10.533Z,16.71
2022-10-18T09:25:53.076Z,16.69
2022-10-18T09:29:12.598Z,16.77
2022-10-18T09:32:42.301Z,16.83
2022-10-18T09:35:58.101Z,17.01
2022-10-18T09:39:07.089Z,17.14
2022-10-18T09:42:23.430Z,17.19
2022-10-18T09:45:49.139Z,17.28
2022-10-18T09:49:04.324Z,17.61
2022-10-18T09:52:10.958Z,17.54
2022-10-18T09:55:32.398Z,17.41
2022-10-18T09:58:31.807Z,17.81
2022-10-18T10:01:40.852Z,17.81
2022-10-18T10:04:46.476Z,17.85
2022-10-18T10:07:58.798Z,17.80
2022-10-18T10:11:04.686Z,17.92
2022-10-18T10:14:33.444Z,17.90
2022-10-18T10:17:39.986Z,18.00
2022-10-18T10:20:53.206Z,17.98
2022-10-18T10:24:07.334Z,17.99
2022-10-18T10:27:16.771Z,18.05
2022-10-18T10:30:37.659Z,17.84
2022-10-18T10:33:51.523Z,17.75
2022-10-18T10:37:06.293Z,17.78
2022-10-18T10:40:36.788Z,17.78
2022-10-18T10:43:52.564Z,17.77
2022-10-18T10:47:00.273Z,17.82
2022-10-18T10:50:05.821Z,17.87
2022-10-18T10:53:21.600Z,18.01
2022-10-18T10:56:38.341Z,17.94
2022-10-18T10:59:46.979Z,17.80
2022-10-18T11:03:00.676Z,17.89
2022-10-18T11:06:04.670Z,17.83
2022-10-18T11:09:10.783Z,17.95
2022-10-18T11:12:39.847Z,17.97
2022-10-18T11:15:56.186Z,18.00
2022-10-18T11:19:03.587Z,18.05
2022-10-18T11:22:09.895Z,17.91
2022-10-18T11:25:15.861Z,17.93
2022-10-18T11:28:56.714Z,18.08
2022-10-18T11:32:35.448Z,18.09
2022-10-18T11:36:00.280Z,18.19
2022-10-18T11:39:24.413Z,17.80
2022-10-18T11:42:40.292Z,17.76
2022-10-18T11:45:56.014Z,17.80
2022-10-18T11:49:33.883Z,17.87
2022-10-18T11:52:48.985Z,17.93
2022-10-18T11:56:22.855Z,17.81
2022-10-18T11:59:52.247Z,18.11
2022-10-18T12:03:36.409Z,18.16
2022-10-18T12:06:48.075Z,17.72
2022-10-18T12:09:56.347Z,17.70
2022-10-18T12:13:09.228Z,18.08
2022-10-18T12:16:16.908Z,18.03
2022-10-18T12:19:34.509Z,17.93
2022-10-18T12:22:57.107Z,17.96
2022-10-18T12:26:10.981Z,18.02
2022-10-18T12:29:48.046Z,17.79
2022-10-18T12:33:03.354Z,17.65
2022-10-18T12:36:22.086Z,17.65
2022-10-18T12:39:43.652Z,17.61
2022-10-18T12:42:38.620Z,18.01
2022-10-18T12:45:47.947Z,18.04
2022-10-18T12:48:58.411Z,17.88
2022-10-18T12:52:18.804Z,18.05
2022-10-18T12:55:31.960Z,17.69
2022-10-18T12:58:41.769Z,17.64
2022-10-18T13:02:03.672Z,17.52
2022-10-18T13:05:00.731Z,17.95
2022-10-18T13:08:05.437Z,17.77
2022-10-18T13:11:29.135Z,17.66
2022-10-18T13:15:05.861Z,17.62
2022-10-18T13:18:13.504Z,17.69
2022-10-18T13:22:05.632Z,17.66
2022-10-18T13:25:41.264Z,17.31
2022-10-18T13:29:02.823Z,17.40
2022-10-18T13:32:40.250Z,17.43
2022-10-18T13:36:12.842Z,17.45
2022-10-18T13:39:20.549Z,17.43
2022-10-18T13:42:44.194Z,17.50
2022-10-18T13:45:59.822Z,17.35
2022-10-18T13:49:10.330Z,17.46
2022-10-18T13:52:36.018Z,17.27
2022-10-18T13:56:22.805Z,17.29
2022-10-18T13:59:49.659Z,16.90
2022-10-18T14:03:56.991Z,16.70
2022-10-18T14:06:50.423Z,16.55
2022-10-18T14:10:06.319Z,16.45
2022-10-18T14:13:13.174Z,16.28
2022-10-18T14:16:44.505Z,16.29
2022-10-18T14:19:53.485Z,16.36
2022-10-18T14:23:24.989Z,16.09
2022-10-18T14:26:35.619Z,15.96
2022-10-18T14:29:41.394Z,15.84
2022-10-18T14:32:47.062Z,16.01
2022-10-18T14:39:10.672Z,15.73
2022-10-18T14:42:15.673Z,15.26
2022-10-18T14:45:30.967Z,15.18
2022-10-18T14:48:36.453Z,15.09
2022-10-18T14:51:44.332Z,14.97
2022-10-18T14:54:52.354Z,14.87
2022-10-18T14:57:58.222Z,14.66
2022-10-18T15:01:04.014Z,14.38
2022-10-18T15:04:16.647Z,14.02
2022-10-18T15:07:24.034Z,13.86
2022-10-18T15:10:38.999Z,13.91
2022-10-18T15:13:44.266Z,13.88
2022-10-18T15:16:51.061Z,13.51
2022-10-18T15:20:10.343Z,13.22
2022-10-18T15:23:39.615Z,13.43
2022-10-18T15:26:45.141Z,13.16
2022-10-18T15:29:50.740Z,13.18
2022-10-18T15:33:16.290Z,13.13
2022-10-18T15:36:27.314Z,12.93
2022-10-18T15:39:37.773Z,12.82
2022-10-18T15:42:51.837Z,12.56
2022-10-18T15:46:05.282Z,12.68
2022-10-18T15:49:10.683Z,12.51
2022-10-18T15:52:48.288Z,12.50
2022-10-18T15:56:02.110Z,12.47
2022-10-18T15:59:11.436Z,12.20
2022-10-18T16:02:16.593Z,11.59
2022-10-18T16:05:25.144Z,11.54
2022-10-18T16:08:39.257Z,11.59
2022-10-18T16:11:44.513Z,11.38
2022-10-18T16:14:49.934Z,11.48
2022-10-18T16:17:57.032Z,11.64
2022-10-18T16:21:04.432Z,11.51
2022-10-18T16:24:09.940Z,11.35
2022-10-18T16:27:15.921Z,11.34
2022-10-18T16:30:34.462Z,11.25
2022-10-18T16:33:39.392Z,11.37
2022-10-18T16:36:40.540Z,11.12
2022-10-18T16:39:47.443Z,11.13
2022-10-18T16:42:53.634Z,11.25
2022-10-18T16:45:59.178Z,10.92
2022-10-18T16:49:05.727Z,11.02
2022-10-18T16:52:11.651Z,10.79
2022-10-18T16:55:19.608Z,11.06
2022-10-18T16:58:32.538Z,11.05
2022-10-18T17:01:38.306Z,10.95
2022-10-18T17:04:36.774Z,10.98
2022-10-18T17:07:43.529Z,10.90
2022-10-18T17:10:49.353Z,10.91
2022-10-18T17:13:55.206Z,10.86
2022-10-18T17:17:02.057Z,10.75
2022-10-18T17:20:09.723Z,10.54
2022-10-18T17:23:16.395Z,10.46
2022-10-18T17:26:29.383Z,10.46
2022-10-18T17:29:32.406Z,10.19
2022-10-18T17:32:38.947Z,10.19
2022-10-18T17:35:43.585Z,10.31
2022-10-18T17:38:50.319Z,10.46
2022-10-18T17:41:55.471Z,10.42
2022-10-18T17:45:00.632Z,10.39
2022-10-18T17:48:06.037Z,10.13
2022-10-18T17:51:11.496Z,9.98
2022-10-18T17:54:16.822Z,10.01
2022-10-18T17:57:23.382Z,10.05
2022-10-18T18:00:31.916Z,10.01
2022-10-18T18:03:38.451Z,9.94
2022-10-18T18:06:47.886Z,9.88
2022-10-18T18:09:53.688Z,9.88
2022-10-18T18:13:01.126Z,9.91
2022-10-18T18:16:05.482Z,9.88
2022-10-18T18:19:12.603Z,9.75
2022-10-18T18:22:18.871Z,9.64
2022-10-18T18:25:24.564Z,9.79
2022-10-18T18:28:29.710Z,9.69
2022-10-18T18:31:40.097Z,9.44
2022-10-18T18:34:43.907Z,9.42
2022-10-18T18:37:49.409Z,9.36
2022-10-18T18:40:56.853Z,9.24
2022-10-18T18:44:09.784Z,9.28
2022-10-18T18:50:23.306Z,9.18
2022-10-18T18:53:29.746Z,9.13
2022-10-18T18:56:38.785Z,9.13
2022-10-18T18:59:44.258Z,9.14
2022-10-18T19:02:50.493Z,9.12
2022-10-18T19:05:58.498Z,9.20
2022-10-18T19:09:11.405Z,9.24
2022-10-18T19:12:20.514Z,9.14
2022-10-18T19:15:26.782Z,8.99
2022-10-18T19:18:33.214Z,9.01
2022-10-18T19:21:42.463Z,9.19
2022-10-18T19:24:48.527Z,9.19
2022-10-18T19:27:54.290Z,9.15
2022-10-18T19:31:01.877Z,9.22
2022-10-18T19:34:08.253Z,9.28
2022-10-18T19:37:16.475Z,9.14
2022-10-18T19:40:22.248Z,9.05
2022-10-18T19:43:27.766Z,9.06
2022-10-18T19:46:34.255Z,9.04
2022-10-18T19:49:39.529Z,8.89
2022-10-18T19:52:45.404Z,8.79
2022-10-18T19:55:51.259Z,8.70
2022-10-18T19:58:57.044Z,8.82
2022-10-18T20:02:02.493Z,8.74
2022-10-18T20:05:08.823Z,8.68
2022-10-18T20:08:15.491Z,8.63
2022-10-18T20:11:24.816Z,8.82
2022-10-18T20:14:30.971Z,8.74
2022-10-18T20:17:36.926Z,8.66
2022-10-18T20:20:47.290Z,8.71
2022-10-18T20:23:53.537Z,8.61
2022-10-18T20:27:00.363Z,8.77
2022-10-18T20:30:10.518Z,8.80
2022-10-18T20:33:14.639Z,8.72
2022-10-18T20:36:22.703Z,8.56
2022-10-18T20:39:28.239Z,8.52
2022-10-18T20:42:33.456Z,8.46
2022-10-18T20:45:31.897Z,8.45
2022-10-18T20:48:24.430Z,8.47
2022-10-18T20:51:30.224Z,8.29
2022-10-18T20:54:36.057Z,8.26
2022-10-18T20:57:37.076Z,8.34
2022-10-18T21:00:42.973Z,8.08
2022-10-18T21:03:47.992Z,8.04
2022-10-18T21:06:55.206Z,8.26
2022-10-18T21:10:00.136Z,8.23
2022-10-18T21:13:05.880Z,8.05
2022-10-18T21:16:12.067Z,7.98
2022-10-18T21:19:22.477Z,7.99
2022-10-18T21:22:20.007Z,8.15
2022-10-18T21:25:26.140Z,7.91
2022-10-18T21:28:30.858Z,8.05
2022-10-18T21:31:45.794Z,7.65
2022-10-18T21:34:52.348Z,7.78
2022-10-18T21:37:59.195Z,7.78
2022-10-18T21:41:06.078Z,7.98
2022-10-18T21:44:12.777Z,8.09
2022-10-18T21:47:19.212Z,8.15
2022-10-18T21:50:25.792Z,8.00
2022-10-18T21:53:34.057Z,8.41
2022-10-18T21:56:42.217Z,8.10
2022-10-18T21:59:48.173Z,8.10
2022-10-18T22:02:47.016Z,8.06
2022-10-18T22:05:53.312Z,8.09
2022-10-18T22:09:07.346Z,8.16
2022-10-18T22:12:13.707Z,8.15
2022-10-18T22:15:19.433Z,8.28
2022-10-18T22:18:26.660Z,8.23
2022-10-18T22:21:33.268Z,8.05
2022-10-18T22:24:38.858Z,8.18
2022-10-18T22:27:45.606Z,8.10
2022-10-18T22:30:52.342Z,8.18
2022-10-18T22:33:58.717Z,8.06
2022-10-18T22:37:05.231Z,8.11
2022-10-18T22:40:11.197Z,8.22
2022-10-18T22:43:17.131Z,8.13
2022-10-18T22:46:25.067Z,7.99
2022-10-18T22:49:30.526Z,8.02
2022-10-18T22:52:36.277Z,7.73
2022-10-18T22:55:42.830Z,7.75
2022-10-18T22:58:49.282Z,7.89
2022-10-18T23:01:56.092Z,7.95
2022-10-18T23:05:03.280Z,7.83
2022-10-18T23:08:09.893Z,7.91
2022-10-18T23:11:15.883Z,7.30
2022-10-18T23:14:21.651Z,7.23
2022-10-18T23:17:27.381Z,7.40
2022-10-18T23:20:34.096Z,7.50
2022-10-18T23:23:41.974Z,7.18
2022-10-18T23:26:48.456Z,7.34
2022-10-18T23:29:54.510Z,7.19
2022-10-18T23:32:59.936Z,7.34
2022-10-18T23:36:05.428Z,7.38
2022-10-18T23:39:13.650Z,7.37
2022-10-18T23:42:20.174Z,7.31
2022-10-18T23:45:25.710Z,7.26
2022-10-18T23:48:31.478Z,7.19
2022-10-18T23:51:37.061Z,7.13
2022-10-18T23:57:48.520Z,7.11
